Latest Weather Observations for Temora

IDN60801

Issued at 11:42 pm EST Saturday 22 September 2018 (issued every 10 minutes, with the page automatically refreshed every 10 minutes)

About weather observations | Map of weather stations | Latest weather observations for NSW | Other Formats
Station Details ID: 073151 Name: TEMORA AIRPORT Lat: -34.43 Lon: 147.51 Height: 280.5 m
Data from the previous 72 hours. | See also: Recent months at Temora
Date/Time
EST
Temp
°C
App
Temp
°C
Dew
Point
°C
Rel
Hum
%
Delta-T
°C
Wind Press
QNH
hPa
Press
MSL
hPa
Rain since
9am
mm
Dir  Spd
km/h
Gust
km/h
Spd
kts
Gust
kts
22/11:30pm 4.9 3.2 1.6 79 1.3 CALM 0 6 0 3 1026.5 1026.6 0.0
22/11:00pm 6.4 3.6 1.9 73 1.8 S 6 7 3 4 1026.6 1026.7 0.0
22/10:30pm 6.6 3.7 2.5 75 1.7 S 7 9 4 5 1026.7 1026.8 0.0
22/10:00pm 8.1 4.9 2.8 69 2.3 SSE 9 17 5 9 1026.7 1026.8 0.0
22/09:30pm 7.2 3.8 1.9 69 2.2 S 9 9 5 5 1026.5 1026.6 0.0
22/09:00pm 8.3 5.3 2.1 65 2.6 S 7 9 4 5 1026.5 1026.6 0.0
22/08:30pm 9.5 7.9 2.6 62 3.0 CALM 0 0 0 0 1026.3 1026.4 0.0
22/08:00pm 10.5 8.9 2.6 58 3.4 CALM 0 0 0 0 1026.1 1026.2 0.0
22/07:30pm 12.1 10.6 3.1 54 4.0 CALM 0 0 0 0 1025.9 1026.1 0.0
22/07:00pm 14.4 12.9 2.9 46 5.2 CALM 0 0 0 0 1025.7 1025.9 0.0
22/06:30pm 16.1 13.2 2.5 40 6.2 S 7 7 4 4 1025.5 1025.7 0.0
22/06:00pm 18.6 15.8 2.0 33 7.6 SW 6 9 3 5 1025.3 1025.5 0.0
22/05:30pm 20.2 16.8 2.1 30 8.5 W 9 13 5 7 1025.0 1025.2 0.0
22/05:00pm 21.2 17.5 2.5 29 8.8 WSW 11 15 6 8 1025.0 1025.2 0.0
22/04:30pm 20.8 17.1 2.6 30 8.6 WSW 11 15 6 8 1024.9 1025.1 0.0
22/04:00pm 21.4 16.6 2.6 29 8.9 WSW 17 26 9 14 1025.0 1025.2 0.0
22/03:30pm 20.5 15.6 1.9 29 8.7 WSW 17 24 9 13 1025.3 1025.5 0.0
22/03:00pm 21.2 17.1 2.0 28 9.0 SW 13 24 7 13 1025.6 1025.8 0.0
22/02:30pm 20.4 14.9 0.8 27 9.0 SW 19 30 10 16 1026.1 1026.2 0.0
22/02:00pm 19.9 14.4 1.8 30 8.4 SW 20 28 11 15 1026.4 1026.5 0.0
22/01:30pm 20.5 15.6 1.9 29 8.7 SW 17 32 9 17 1026.7 1026.8 0.0
22/01:00pm 20.2 15.4 2.5 31 8.3 SSW 17 28 9 15 1027.1 1027.2 0.0
22/12:30pm 20.0 15.2 2.8 32 8.2 SW 17 28 9 15 1027.6 1027.7 0.0
22/12:00pm 19.7 14.9 2.6 32 8.0 SW 17 24 9 13 1027.8 1027.9 0.0
22/11:30am 20.2 15.0 2.5 31 8.4 WSW 19 30 10 16 1027.8 1027.9 0.0
22/11:00am 19.9 14.9 1.4 29 8.5 WSW 17 26 9 14 1028.0 1028.2 0.0
22/10:30am 19.8 15.8 2.6 32 8.1 SW 13 20 7 11 1028.2 1028.4 0.0
22/10:00am 18.6 15.0 2.9 35 7.3 WSW 11 20 6 11 1028.5 1028.7 0.0
22/09:30am 16.5 14.4 5.8 49 5.2 NNW 6 9 3 5 1028.8 1029.0 0.0
22/09:00am 14.4 12.7 5.7 56 4.2 N 4 7 2 4 1028.9 1029.1 0.0
22/08:30am 12.1 10.2 5.0 62 3.3 NNW 4 7 2 4 1028.9 1029.1 0.0
22/08:00am 8.8 7.7 5.0 77 1.7 CALM 0 0 0 0 1028.5 1028.7 0.0
22/07:30am 5.8 4.5 4.1 89 0.7 CALM 0 0 0 0 1028.3 1028.5 0.0
22/07:00am 4.8 2.0 3.0 88 0.7 S 7 9 4 5 1028.0 1028.2 0.0
22/06:30am 2.7 0.9 0.9 88 0.7 CALM 0 6 0 3 1027.9 1028.1 0.0
22/06:00am 2.6 0.7 0.8 88 0.7 CALM 0 0 0 0 1027.5 1027.6 0.0
22/05:30am 2.1 -1.5 0.6 90 0.6 SW 9 11 5 6 1027.3 1027.4 0.0
22/05:00am 2.3 0.4 0.5 88 0.7 CALM 0 0 0 0 1027.1 1027.2 0.0
22/04:30am 1.9 -1.2 0.1 88 0.7 SSW 6 7 3 4 1027.0 1027.1 0.0
22/04:00am 2.0 -1.1 0.1 87 0.7 SW 6 6 3 3 1027.0 1027.1 0.0
22/03:30am 3.0 0.0 0.9 86 0.8 S 6 6 3 3 1026.8 1026.9 0.0
22/03:00am 1.5 -0.9 -0.6 86 0.8 SW 2 7 1 4 1026.9 1027.0 0.0
22/02:30am 3.0 -0.1 1.1 87 0.7 S 7 9 4 5 1026.9 1027.0 0.0
22/02:00am 2.6 -0.5 0.0 83 1.0 SSW 6 7 3 4 1027.1 1027.2 0.0
22/01:30am 3.0 0.7 0.6 84 0.9 SW 2 7 1 4 1027.2 1027.3 0.0
22/01:00am 3.4 1.5 0.6 82 1.1 CALM 0 0 0 0 1027.2 1027.3 0.0
22/12:30am 4.1 1.5 1.1 81 1.2 S 4 7 2 4 1027.3 1027.4 0.0
22/12:00am 4.8 1.8 0.9 76 1.5 SE 6 7 3 4 1027.3 1027.4 0.0
 
Date/Time
EST
Temp
°C
App
Temp
°C
Dew
Point
°C
Rel
Hum
%
Delta-T
°C
Wind Press
QNH
hPa
Press
MSL
hPa
Rain since
9am
mm
Dir  Spd
km/h
Gust
km/h
Spd
kts
Gust
kts
21/11:30pm 4.9 2.5 2.1 82 1.1 SSW 4 7 2 4 1027.5 1027.6 0.0
21/11:00pm 4.7 2.6 1.4 79 1.3 SSW 2 7 1 4 1027.5 1027.6 0.0
21/10:30pm 5.5 2.4 1.6 76 1.6 S 7 7 4 4 1027.6 1027.7 0.0
21/10:00pm 5.3 2.8 1.4 76 1.6 SSW 4 6 2 3 1027.7 1027.8 0.0
21/09:30pm 6.5 4.0 1.6 71 2.0 SW 4 9 2 5 1027.6 1027.7 0.0
21/09:00pm 7.8 6.1 1.9 66 2.4 CALM 0 0 0 0 1027.6 1027.7 0.0
21/08:30pm 8.5 6.8 1.6 62 2.9 CALM 0 0 0 0 1027.4 1027.5 0.0
21/08:00pm 9.8 8.2 2.2 59 3.2 CALM 0 0 0 0 1027.2 1027.3 0.0
21/07:30pm 12.0 10.5 3.0 54 4.0 CALM 0 0 0 0 1027.0 1027.1 0.0
21/07:00pm 13.7 12.2 2.9 48 4.8 CALM 0 0 0 0 1026.8 1026.9 0.0
21/06:30pm 15.5 13.1 2.3 41 6.0 WSW 4 7 2 4 1026.5 1026.6 0.0
21/06:00pm 16.9 13.1 1.8 36 6.8 WSW 11 17 6 9 1026.4 1026.5 0.0
21/05:30pm 18.9 14.8 2.3 33 7.7 WSW 13 17 7 9 1026.2 1026.3 0.0
21/05:00pm 20.0 15.9 2.4 31 8.2 WSW 13 19 7 10 1026.1 1026.2 0.0
21/04:30pm 20.3 16.6 2.2 30 8.5 WSW 11 17 6 9 1025.8 1026.0 0.0
21/04:00pm 20.5 16.0 2.3 30 8.5 WSW 15 26 8 14 1025.7 1025.9 0.0
21/03:30pm 20.9 16.0 2.2 29 8.8 SW 17 28 9 15 1025.6 1025.8 0.0
21/03:00pm 20.3 16.2 2.2 30 8.4 SW 13 20 7 11 1025.7 1025.9 0.0
21/02:30pm 20.4 15.6 2.7 31 8.4 SSW 17 26 9 14 1026.1 1026.2 0.0
21/02:00pm 19.9 15.3 1.4 29 8.5 SW 15 22 8 12 1026.5 1026.6 0.0
21/01:30pm 19.9 16.2 2.3 31 8.3 S 11 20 6 11 1026.7 1026.8 0.0
21/01:00pm 19.8 16.1 2.2 31 8.2 SSW 11 20 6 11 1027.0 1027.1 0.0
21/12:30pm 19.1 14.6 2.0 32 7.9 SSW 15 20 8 11 1027.3 1027.4 0.0
21/12:00pm 18.9 14.4 2.3 33 7.7 SW 15 26 8 14 1027.8 1027.9 0.0
21/11:30am 18.3 13.9 2.6 35 7.3 SSW 15 20 8 11 1028.2 1028.4 0.0
21/11:00am 18.1 14.8 2.4 35 7.2 S 9 20 5 11 1028.5 1028.7 0.0
21/10:30am 16.6 13.1 1.1 35 6.9 SSW 9 17 5 9 1028.7 1028.9 0.0
21/10:00am 16.0 11.7 1.0 36 6.6 SW 13 19 7 10 1028.8 1029.0 0.0
21/09:30am 15.1 12.1 0.5 37 6.3 SE 6 9 3 5 1028.7 1028.9 0.0
21/09:00am 13.5 10.9 0.9 42 5.4 ENE 4 9 2 5 1028.6 1028.8 0.0
21/08:30am 10.8 8.7 1.6 53 3.9 N 2 7 1 4 1028.5 1028.7 0.0
21/08:00am 8.6 7.0 2.2 64 2.7 CALM 0 0 0 0 1028.2 1028.4 0.0
21/07:30am 4.5 2.7 1.4 80 1.2 CALM 0 0 0 0 1027.9 1028.1 0.0
21/07:00am 1.1 -0.9 -0.2 91 0.5 CALM 0 0 0 0 1027.7 1027.8 0.0
21/06:30am -1.3 -4.8 -2.9 89 0.5 S 6 7 3 4 1027.3 1027.4 0.0
21/06:00am -1.3 -3.6 -2.6 91 0.4 CALM 0 0 0 0 1027.0 1027.1 0.0
21/05:30am -2.1 -4.6 -3.7 89 0.4 CALM 0 0 0 0 1026.6 1026.7 0.0
21/05:00am -1.0 -4.5 -2.9 87 0.6 SSE 6 7 3 4 1026.1 1026.2 0.0
21/04:30am -0.6 -4.2 -2.3 88 0.6 S 7 7 4 4 1025.9 1026.1 0.0
21/04:00am -1.2 -4.8 -3.4 85 0.7 S 6 7 3 4 1025.7 1025.9 0.0
21/03:30am -0.8 -3.2 -2.8 86 0.6 CALM 0 0 0 0 1025.6 1025.8 0.0
21/03:00am -0.1 -2.4 -2.2 86 0.7 CALM 0 0 0 0 1025.5 1025.7 0.0
21/02:30am -0.2 -2.5 -2.4 85 0.8 CALM 0 0 0 0 1025.6 1025.8 0.0
21/02:00am 0.7 -1.6 -2.0 82 1.0 CALM 0 0 0 0 1025.8 1026.0 0.0
21/01:30am 0.4 -2.3 -2.6 80 1.1 SSE 2 6 1 3 1026.2 1026.3 0.0
21/01:00am 1.1 -2.5 -1.8 81 1.0 SSW 7 7 4 4 1026.3 1026.4 0.0
21/12:30am 0.4 -3.1 -2.5 81 1.0 SSW 6 7 3 4 1026.2 1026.3 0.0
21/12:00am 1.3 -2.7 -2.5 76 1.4 S 9 9 5 5 1025.9 1026.1 0.0
 
Date/Time
EST
Temp
°C
App
Temp
°C
Dew
Point
°C
Rel
Hum
%
Delta-T
°C
Wind Press
QNH
hPa
Press
MSL
hPa
Rain since
9am
mm
Dir  Spd
km/h
Gust
km/h
Spd
kts
Gust
kts
20/11:30pm 2.2 -1.7 -1.8 75 1.4 S 9 11 5 6 1025.7 1025.9 0.0
20/11:00pm 2.7 -0.8 -1.6 73 1.5 SSW 7 9 4 5 1025.6 1025.8 0.0
20/10:30pm 2.3 -1.3 -2.4 71 1.7 SSW 7 9 4 5 1025.3 1025.5 0.0
20/10:00pm 4.4 0.9 -1.4 66 2.1 S 7 9 4 5 1025.3 1025.5 0.0
20/09:30pm 4.6 1.1 -1.6 64 2.3 S 7 7 4 4 1025.2 1025.4 0.0
20/09:00pm 6.2 2.9 -1.4 58 2.9 SSW 6 7 3 4 1024.8 1024.9 0.0
20/08:30pm 5.9 2.4 -1.7 58 2.8 SSW 7 7 4 4 1024.4 1024.5 0.0
20/08:00pm 9.3 5.5 -0.8 49 4.0 S 9 9 5 5 1024.0 1024.1 0.0
20/07:30pm 9.9 6.4 -1.2 46 4.4 SSW 7 7 4 4 1023.7 1023.8 0.0
20/07:00pm 11.4 7.8 -2.0 39 5.3 SSW 7 9 4 5 1023.2 1023.3 0.0
20/06:30pm 12.3 8.3 -2.3 36 5.8 SSW 9 11 5 6 1022.7 1022.8 0.0
20/06:00pm 13.5 9.1 -2.4 33 6.3 SW 11 15 6 8 1022.4 1022.5 0.0
20/05:30pm 15.5 10.4 -2.0 30 7.2 SW 15 22 8 12 1021.9 1022.1 0.0
20/05:00pm 16.3 10.5 -1.7 29 7.5 SW 19 26 10 14 1021.6 1021.7 0.0
20/04:30pm 16.8 10.7 -2.3 27 7.9 SW 20 28 11 15 1021.3 1021.4 0.0
20/04:00pm 16.6 10.6 -1.5 29 7.6 WSW 20 35 11 19 1021.0 1021.1 0.0
20/03:30pm 17.3 10.9 -1.9 27 8.1 WSW 22 32 12 17 1020.9 1021.0 0.0
20/03:00pm 17.0 10.2 -1.6 28 7.8 SW 24 41 13 22 1020.9 1021.0 0.0
20/02:30pm 17.5 12.1 -1.2 28 8.0 SW 17 26 9 14 1020.6 1020.7 0.0
20/02:00pm 17.7 12.0 -1.0 28 8.0 WSW 19 32 10 17 1020.6 1020.7 0.0
20/01:30pm 17.3 11.4 -0.9 29 7.8 W 20 32 11 17 1020.7 1020.8 0.0
20/01:00pm 17.2 11.5 -0.5 30 7.6 SW 19 28 10 15 1020.8 1020.9 0.0
20/12:30pm 16.8 11.0 -0.4 31 7.4 WSW 20 30 11 16 1021.2 1021.3 0.0
20/12:00pm 16.9 11.1 -0.3 31 7.4 SW 20 30 11 16 1021.3 1021.4 0.0
20/11:30am 17.1 11.6 0.3 32 7.4 WSW 19 30 10 16 1021.6 1021.7 0.0
20/11:00am 14.9 9.1 -1.2 33 6.7 WSW 19 30 10 16 1021.6 1021.7 0.0
20/10:30am 15.1 10.1 -1.0 33 6.8 SSW 15 24 8 13 1021.4 1021.5 0.0
20/10:00am 15.3 11.2 -0.1 35 6.6 WNW 11 19 6 10 1021.5 1021.6 0.0
20/09:30am 14.3 11.3 0.6 39 5.9 S 6 15 3 8 1021.3 1021.4 0.0
20/09:00am 12.5 9.2 0.3 43 5.1 WNW 7 11 4 6 1021.2 1021.3 0.0
20/08:30am 11.2 9.3 0.3 47 4.5 CALM 0 0 0 0 1020.9 1021.0 0.0
20/08:00am 8.4 5.3 0.1 56 3.3 S 6 7 3 4 1020.6 1020.7 0.0
20/07:30am 4.9 3.0 0.3 72 1.8 CALM 0 0 0 0 1020.4 1020.5 0.0
20/07:00am 2.0 -0.3 0.2 88 0.7 SSE 2 7 1 4 1020.1 1020.2 0.0
20/06:30am 0.4 -3.4 -1.0 90 0.5 S 9 11 5 6 1019.9 1020.0 0.0
20/06:00am -0.8 -4.3 -2.7 87 0.6 SSW 6 7 3 4 1019.6 1019.7 0.0
20/05:30am -0.4 -3.9 -2.8 84 0.8 WSW 6 6 3 3 1019.1 1019.2 0.0
20/05:00am -0.2 -3.6 -1.9 88 0.6 SW 6 7 3 4 1018.8 1018.8 0.0
20/04:30am -0.8 -4.0 -3.3 83 0.8 WSW 4 7 2 4 1018.2 1018.3 0.0
20/04:00am 0.4 -1.9 -2.0 84 0.9 CALM 0 0 0 0 1017.9 1018.0 0.0
20/03:30am 0.7 -1.6 -2.0 82 1.0 CALM 0 0 0 0 1017.7 1017.8 0.0
20/03:00am 1.4 -0.8 -1.8 79 1.1 CALM 0 0 0 0 1017.5 1017.6 0.0
20/02:30am 3.0 -0.3 -1.2 74 1.5 SE 6 7 3 4 1017.5 1017.6 0.0
20/02:00am 2.0 -1.3 -0.9 81 1.1 SSE 6 7 3 4 1017.5 1017.6 0.0
20/01:30am 1.6 -2.0 -2.2 76 1.3 SSW 7 9 4 5 1017.6 1017.7 0.0
20/01:00am 1.1 -2.4 -2.6 76 1.3 SSW 6 9 3 5 1017.8 1017.9 0.0
20/12:30am 1.9 -1.7 -2.1 75 1.4 S 7 9 4 5 1017.9 1018.0 0.0
20/12:00am 2.0 -1.4 -2.3 73 1.5 SSW 6 7 3 4 1017.9 1018.0 0.0

Other Formats:

Comma delimited format used in spreadsheet applications
http://www.bom.gov.au/fwo/IDN60801/IDN60801.95722.axf

JavaScript Object Notation format (JSON) in row-major order
http://www.bom.gov.au/fwo/IDN60801/IDN60801.95722.json